createdAt,value
2018-09-17T00:00:49.850Z,12.70
2018-09-17T00:03:17.561Z,12.70
2018-09-17T00:05:45.275Z,12.70
2018-09-17T00:08:12.969Z,12.70
2018-09-17T00:10:40.657Z,12.60
2018-09-17T00:13:08.392Z,12.50
2018-09-17T00:15:36.110Z,12.60
2018-09-17T00:18:03.771Z,12.60
2018-09-17T00:23:11.076Z,12.60
2018-09-17T00:25:38.782Z,12.70
2018-09-17T00:28:06.462Z,12.70
2018-09-17T00:30:34.094Z,12.70
2018-09-17T00:33:01.748Z,12.70
2018-09-17T00:35:29.394Z,12.70
2018-09-17T00:37:56.957Z,12.60
2018-09-17T00:40:24.588Z,12.60
2018-09-17T00:42:52.249Z,12.60
2018-09-17T00:45:19.885Z,12.60
2018-09-17T00:47:47.545Z,12.60
2018-09-17T00:50:15.313Z,12.60
2018-09-17T00:52:43.077Z,12.50
2018-09-17T00:55:10.762Z,12.50
2018-09-17T00:57:38.559Z,12.50
2018-09-17T01:00:06.365Z,12.50
2018-09-17T01:02:34.057Z,12.50
2018-09-17T01:05:01.784Z,12.50
2018-09-17T01:07:29.510Z,12.50
2018-09-17T01:09:57.090Z,12.50
2018-09-17T01:12:24.738Z,12.40
2018-09-17T01:14:52.399Z,12.40
2018-09-17T01:17:20.089Z,12.40
2018-09-17T01:19:47.764Z,12.40
2018-09-17T01:22:15.384Z,12.40
2018-09-17T01:24:43.012Z,12.40
2018-09-17T01:27:10.697Z,12.40
2018-09-17T01:29:38.348Z,12.40
2018-09-17T01:32:06.122Z,12.40
2018-09-17T01:34:33.810Z,12.30
2018-09-17T01:37:01.475Z,12.30
2018-09-17T01:39:29.172Z,12.30
2018-09-17T01:41:56.808Z,12.30
2018-09-17T01:44:24.515Z,12.30
2018-09-17T01:46:52.160Z,12.40
2018-09-17T01:49:19.876Z,12.30
2018-09-17T01:51:47.561Z,12.30
2018-09-17T01:54:15.181Z,12.20
2018-09-17T01:56:42.841Z,12.30
2018-09-17T01:59:10.601Z,12.20
2018-09-17T02:01:38.254Z,12.10
2018-09-17T02:04:05.923Z,12.20
2018-09-17T02:06:33.526Z,12.10
2018-09-17T02:09:01.264Z,12.10
2018-09-17T02:11:28.933Z,12.10
2018-09-17T02:13:56.624Z,12.00
2018-09-17T02:16:24.245Z,12.00
2018-09-17T02:18:51.937Z,11.90
2018-09-17T02:21:19.651Z,11.90
2018-09-17T02:23:47.394Z,11.80
2018-09-17T02:26:15.067Z,11.80
2018-09-17T02:28:42.666Z,11.90
2018-09-17T02:31:10.322Z,11.80
2018-09-17T02:33:37.945Z,11.80
2018-09-17T02:36:06.528Z,11.80
2018-09-17T02:38:34.171Z,11.90
2018-09-17T02:41:01.816Z,11.90
2018-09-17T02:43:29.508Z,11.90
2018-09-17T02:45:57.138Z,11.80
2018-09-17T02:48:24.854Z,11.70
2018-09-17T02:50:52.478Z,11.70
2018-09-17T02:53:20.142Z,11.70
2018-09-17T02:55:47.873Z,11.70
2018-09-17T02:58:15.572Z,11.70
2018-09-17T03:00:43.266Z,11.60
2018-09-17T03:03:10.966Z,11.70
2018-09-17T03:05:38.632Z,11.60
2018-09-17T03:08:06.258Z,11.60
2018-09-17T03:10:34.004Z,11.60
2018-09-17T03:13:01.739Z,11.60
2018-09-17T03:15:48.173Z,11.60
2018-09-17T03:18:21.435Z,11.60
2018-09-17T03:20:49.309Z,11.60
2018-09-17T03:23:16.972Z,11.60
2018-09-17T03:25:44.632Z,11.60
2018-09-17T03:28:12.257Z,11.60
2018-09-17T03:30:39.959Z,11.70
2018-09-17T03:33:07.661Z,11.70
2018-09-17T03:35:35.277Z,11.80
2018-09-17T03:38:26.494Z,11.80
2018-09-17T03:40:54.154Z,11.80
2018-09-17T03:43:21.754Z,11.80
2018-09-17T03:45:49.727Z,11.80
2018-09-17T03:48:17.582Z,11.70
2018-09-17T03:50:45.515Z,11.70
2018-09-17T03:53:13.284Z,11.60
2018-09-17T03:55:41.054Z,11.60
2018-09-17T03:58:08.735Z,11.60
2018-09-17T04:00:36.474Z,11.60
2018-09-17T04:03:04.170Z,11.50
2018-09-17T04:05:31.830Z,11.50
2018-09-17T04:07:59.563Z,11.40
2018-09-17T04:10:27.212Z,11.40
2018-09-17T04:12:55.640Z,11.40
2018-09-17T04:15:23.364Z,11.20
2018-09-17T04:17:51.054Z,11.10
2018-09-17T04:20:18.771Z,11.10
2018-09-17T04:22:46.431Z,11.20
2018-09-17T04:25:14.505Z,11.20
2018-09-17T04:27:42.242Z,11.10
2018-09-17T04:30:10.002Z,11.10
2018-09-17T04:32:37.861Z,11.00
2018-09-17T04:35:06.615Z,11.00
2018-09-17T04:37:35.207Z,10.90
2018-09-17T04:40:02.901Z,10.90
2018-09-17T04:42:30.543Z,11.00
2018-09-17T04:44:58.285Z,11.00
2018-09-17T04:47:25.976Z,11.00
2018-09-17T04:49:53.805Z,11.00
2018-09-17T04:52:21.454Z,11.00
2018-09-17T04:54:49.104Z,11.10
2018-09-17T04:57:16.872Z,11.20
2018-09-17T04:59:44.429Z,11.30
2018-09-17T05:02:12.139Z,11.30
2018-09-17T05:04:39.882Z,11.40
2018-09-17T05:07:07.611Z,11.40
2018-09-17T05:09:35.414Z,11.40
2018-09-17T05:12:05.695Z,11.40
2018-09-17T05:14:33.369Z,11.30
2018-09-17T05:17:01.195Z,11.50
2018-09-17T05:19:28.922Z,11.50
2018-09-17T05:21:56.603Z,11.60
2018-09-17T05:24:24.252Z,11.60
2018-09-17T05:26:51.958Z,11.60
2018-09-17T05:29:19.581Z,11.70
2018-09-17T05:31:47.272Z,11.70
2018-09-17T05:34:14.944Z,11.80
2018-09-17T05:36:42.669Z,11.80
2018-09-17T05:39:11.068Z,11.90
2018-09-17T05:41:38.865Z,11.90
2018-09-17T05:44:06.745Z,11.90
2018-09-17T05:46:34.898Z,11.90
2018-09-17T05:49:02.689Z,12.00
2018-09-17T05:51:30.337Z,12.00
2018-09-17T05:53:58.132Z,12.10
2018-09-17T05:56:25.789Z,12.00
2018-09-17T05:58:53.643Z,12.00
2018-09-17T06:01:21.408Z,12.10
2018-09-17T06:03:49.139Z,12.10
2018-09-17T06:06:16.899Z,12.20
2018-09-17T06:08:44.534Z,12.30
2018-09-17T06:11:12.192Z,12.40
2018-09-17T06:13:39.880Z,12.50
2018-09-17T06:16:07.542Z,12.70
2018-09-17T06:18:35.595Z,12.90
2018-09-17T06:21:03.762Z,13.10
2018-09-17T06:23:31.429Z,13.30
2018-09-17T06:25:59.051Z,13.60
2018-09-17T06:28:26.676Z,13.80
2018-09-17T06:30:54.341Z,14.10
2018-09-17T06:33:22.007Z,14.30
2018-09-17T06:35:49.663Z,14.50
2018-09-17T06:38:17.287Z,14.70
2018-09-17T06:40:44.955Z,15.00
2018-09-17T06:43:12.637Z,15.20
2018-09-17T06:45:40.374Z,15.40
2018-09-17T06:48:08.050Z,15.50
2018-09-17T06:50:35.703Z,15.60
2018-09-17T06:53:03.598Z,15.80
2018-09-17T06:55:31.967Z,15.80
2018-09-17T06:57:59.644Z,16.00
2018-09-17T07:00:27.330Z,16.30
2018-09-17T07:02:56.092Z,16.50
2018-09-17T07:05:23.829Z,16.60
2018-09-17T07:07:51.518Z,16.60
2018-09-17T07:10:19.259Z,16.70
2018-09-17T07:12:47.144Z,16.90
2018-09-17T07:15:14.786Z,17.10
2018-09-17T07:17:42.989Z,17.10
2018-09-17T07:20:10.696Z,17.10
2018-09-17T07:22:38.341Z,17.20
2018-09-17T07:25:06.955Z,17.40
2018-09-17T07:27:34.497Z,17.50
2018-09-17T07:30:02.189Z,17.80
2018-09-17T07:32:29.905Z,17.80
2018-09-17T07:34:57.542Z,17.70
2018-09-17T07:37:25.230Z,17.90
2018-09-17T07:39:52.886Z,18.20
2018-09-17T07:42:20.597Z,18.00
2018-09-17T07:44:48.278Z,17.90
2018-09-17T07:47:15.977Z,18.00
2018-09-17T07:49:43.654Z,18.30
2018-09-17T07:52:11.317Z,18.50
2018-09-17T07:54:38.937Z,18.70
2018-09-17T07:57:06.788Z,18.90
2018-09-17T07:59:34.479Z,18.80
2018-09-17T08:02:02.098Z,19.00
2018-09-17T08:04:29.989Z,18.90
2018-09-17T08:06:57.625Z,19.00
2018-09-17T08:09:25.266Z,19.10
2018-09-17T08:11:53.053Z,19.30
2018-09-17T08:14:20.679Z,19.50
2018-09-17T08:16:48.482Z,19.60
2018-09-17T08:19:16.141Z,19.80
2018-09-17T08:21:43.809Z,20.00
2018-09-17T08:24:11.463Z,20.10
2018-09-17T08:26:39.141Z,20.20
2018-09-17T08:29:07.042Z,20.40
2018-09-17T08:31:34.686Z,20.50
2018-09-17T08:34:02.336Z,20.60
2018-09-17T08:36:30.017Z,20.60
2018-09-17T08:38:57.859Z,20.60
2018-09-17T08:41:25.507Z,20.50
2018-09-17T08:43:53.202Z,20.50
2018-09-17T08:46:20.866Z,20.70
2018-09-17T08:48:48.521Z,20.70
2018-09-17T08:51:16.202Z,20.80
2018-09-17T08:53:43.794Z,20.80
2018-09-17T08:56:17.391Z,20.80
2018-09-17T08:58:50.994Z,20.90
2018-09-17T09:01:24.216Z,21.10
2018-09-17T09:03:57.925Z,21.30
2018-09-17T09:06:28.574Z,21.40
2018-09-17T09:08:56.221Z,21.60
2018-09-17T09:11:29.578Z,21.60
2018-09-17T09:14:01.850Z,21.90
2018-09-17T09:16:29.474Z,22.00
2018-09-17T09:18:57.171Z,22.20
2018-09-17T09:21:25.293Z,22.30
2018-09-17T09:23:53.005Z,22.40
2018-09-17T09:26:20.782Z,22.60
2018-09-17T09:28:48.429Z,22.80
2018-09-17T09:31:16.054Z,22.90
2018-09-17T09:33:43.688Z,23.00
2018-09-17T09:36:11.396Z,22.90
2018-09-17T09:38:39.065Z,23.00
2018-09-17T09:41:06.822Z,23.10
2018-09-17T09:43:34.491Z,23.10
2018-09-17T09:46:02.338Z,23.20
2018-09-17T09:48:30.000Z,23.40
2018-09-17T09:50:57.624Z,23.50
2018-09-17T09:53:25.465Z,23.60
2018-09-17T09:55:53.156Z,23.70
2018-09-17T09:58:20.772Z,24.00
2018-09-17T10:00:54.281Z,24.00
2018-09-17T10:03:26.547Z,24.00
2018-09-17T10:05:54.181Z,24.00
2018-09-17T10:08:21.875Z,24.10
2018-09-17T10:10:55.408Z,24.20
2018-09-17T10:13:28.733Z,24.40
2018-09-17T10:15:57.220Z,24.50
2018-09-17T10:18:30.638Z,24.60
2018-09-17T10:20:58.906Z,24.80
2018-09-17T10:23:26.759Z,24.90
2018-09-17T10:25:54.420Z,25.10
2018-09-17T10:28:22.339Z,25.20
2018-09-17T10:30:49.984Z,25.30
2018-09-17T10:33:17.849Z,25.50
2018-09-17T10:35:45.561Z,25.40
2018-09-17T10:38:13.261Z,25.60
2018-09-17T10:40:40.948Z,25.70
2018-09-17T10:43:08.672Z,25.90
2018-09-17T10:45:36.645Z,25.90
2018-09-17T10:48:04.375Z,26.20
2018-09-17T10:50:32.063Z,26.70
2018-09-17T10:52:59.801Z,26.70
2018-09-17T10:55:27.505Z,27.00
2018-09-17T10:57:55.133Z,27.10
2018-09-17T11:00:23.325Z,27.10
2018-09-17T11:02:51.159Z,27.00
2018-09-17T11:05:18.783Z,27.00
2018-09-17T11:07:46.551Z,26.90
2018-09-17T11:10:14.244Z,27.30
2018-09-17T11:12:42.053Z,27.20
2018-09-17T11:15:09.781Z,27.10
2018-09-17T11:17:37.503Z,27.10
2018-09-17T11:20:06.129Z,26.90
2018-09-17T11:22:33.816Z,27.50
2018-09-17T11:25:01.459Z,27.80
2018-09-17T11:27:29.181Z,27.70
2018-09-17T11:29:56.874Z,28.10
2018-09-17T11:32:24.603Z,28.60
2018-09-17T11:34:52.313Z,29.90
2018-09-17T11:37:20.000Z,30.70
2018-09-17T11:39:47.692Z,31.70
2018-09-17T11:42:15.396Z,30.40
2018-09-17T11:44:43.044Z,31.60
2018-09-17T11:47:10.841Z,31.70
2018-09-17T11:49:38.682Z,31.20
2018-09-17T11:52:06.446Z,30.70
2018-09-17T11:54:34.178Z,31.60
2018-09-17T11:57:01.896Z,32.10
2018-09-17T11:59:29.615Z,33.40
2018-09-17T12:02:03.620Z,34.90
2018-09-17T12:04:36.056Z,36.00
2018-09-17T12:07:09.519Z,37.40
2018-09-17T12:09:38.223Z,38.30
2018-09-17T12:12:05.934Z,38.90
2018-09-17T12:14:33.653Z,39.50
2018-09-17T12:17:01.323Z,39.20
2018-09-17T12:19:29.014Z,37.90
2018-09-17T12:21:56.734Z,36.00
2018-09-17T12:24:24.366Z,37.00
2018-09-17T12:26:52.075Z,38.10
2018-09-17T12:29:19.748Z,39.00
2018-09-17T12:31:47.500Z,39.10
2018-09-17T12:34:15.111Z,39.00
2018-09-17T12:36:42.750Z,39.80
2018-09-17T12:39:11.543Z,40.20
2018-09-17T12:41:39.190Z,40.30
2018-09-17T12:44:06.874Z,40.90
2018-09-17T12:46:34.504Z,40.30
2018-09-17T12:49:02.153Z,41.40
2018-09-17T12:51:29.812Z,41.10
2018-09-17T12:53:57.568Z,40.90
2018-09-17T12:56:25.256Z,40.70
2018-09-17T12:58:52.916Z,41.00
2018-09-17T13:01:20.760Z,41.70
2018-09-17T13:03:48.595Z,42.30
2018-09-17T13:06:16.207Z,42.60
2018-09-17T13:08:43.924Z,40.40
2018-09-17T13:11:11.705Z,40.80
2018-09-17T13:13:39.471Z,41.20
2018-09-17T13:16:07.819Z,42.10
2018-09-17T13:18:35.596Z,42.20
2018-09-17T13:21:03.378Z,43.00
2018-09-17T13:23:32.860Z,41.20
2018-09-17T13:26:00.513Z,40.90
2018-09-17T13:28:28.185Z,41.40
2018-09-17T13:30:55.809Z,41.60
2018-09-17T13:33:23.629Z,40.60
2018-09-17T13:35:51.611Z,42.30
2018-09-17T13:38:20.813Z,43.50
2018-09-17T13:40:48.451Z,43.10
2018-09-17T13:43:16.122Z,43.20
2018-09-17T13:45:43.779Z,43.80
2018-09-17T13:48:11.414Z,43.80
2018-09-17T13:50:39.145Z,44.00
2018-09-17T13:53:06.784Z,43.30
2018-09-17T13:55:34.494Z,42.90
2018-09-17T13:58:02.197Z,42.80
2018-09-17T14:00:29.938Z,42.90
2018-09-17T14:02:57.615Z,42.60
2018-09-17T14:05:25.380Z,42.50
2018-09-17T14:07:53.115Z,42.70
2018-09-17T14:10:20.993Z,43.50
2018-09-17T14:12:48.639Z,44.10
2018-09-17T14:15:16.376Z,44.30
2018-09-17T14:17:44.138Z,44.20
2018-09-17T14:20:11.796Z,43.60
2018-09-17T14:22:39.598Z,44.00
2018-09-17T14:25:07.395Z,40.80
2018-09-17T14:27:35.086Z,40.50
2018-09-17T14:30:02.789Z,38.30
2018-09-17T14:32:36.169Z,40.20
2018-09-17T14:35:03.926Z,41.20
2018-09-17T14:37:31.671Z,42.20
2018-09-17T14:39:59.386Z,41.30
2018-09-17T14:42:27.144Z,41.80
2018-09-17T14:44:54.771Z,42.10
2018-09-17T14:47:22.435Z,40.70
2018-09-17T14:49:50.132Z,40.10
2018-09-17T14:52:17.844Z,39.50
2018-09-17T14:54:45.654Z,38.60
2018-09-17T14:57:13.271Z,38.70
2018-09-17T14:59:41.016Z,38.20
2018-09-17T15:02:08.935Z,38.50
2018-09-17T15:04:36.554Z,38.20
2018-09-17T15:07:04.236Z,38.10
2018-09-17T15:09:31.871Z,38.40
2018-09-17T15:11:59.590Z,38.30
2018-09-17T15:14:27.317Z,38.20
2018-09-17T15:16:54.955Z,38.60
2018-09-17T15:19:22.578Z,38.60
2018-09-17T15:21:50.337Z,38.30
2018-09-17T15:24:17.970Z,38.30
2018-09-17T15:26:46.186Z,38.40
2018-09-17T15:29:13.894Z,38.70
2018-09-17T15:31:41.513Z,39.40
2018-09-17T15:34:09.168Z,38.90
2018-09-17T15:36:36.829Z,38.50
2018-09-17T15:39:08.860Z,39.00
2018-09-17T15:41:37.144Z,37.90
2018-09-17T15:44:05.002Z,37.60
2018-09-17T15:46:33.233Z,37.20
2018-09-17T15:49:00.910Z,37.20
2018-09-17T15:51:28.617Z,37.20
2018-09-17T15:53:56.336Z,36.60
2018-09-17T15:56:24.400Z,35.70
2018-09-17T15:58:52.214Z,34.70
2018-09-17T16:01:20.018Z,33.60
2018-09-17T16:03:47.738Z,32.80
2018-09-17T16:06:15.469Z,32.10
2018-09-17T16:08:43.225Z,31.30
2018-09-17T16:11:11.043Z,30.50
2018-09-17T16:13:38.856Z,30.00
2018-09-17T16:16:06.536Z,29.40
2018-09-17T16:18:34.307Z,28.90
2018-09-17T16:21:01.979Z,28.70
2018-09-17T16:23:29.719Z,28.20
2018-09-17T16:25:57.449Z,27.80
2018-09-17T16:28:25.188Z,27.50
2018-09-17T16:30:52.933Z,27.30
2018-09-17T16:33:20.890Z,26.70
2018-09-17T16:35:48.658Z,26.50
2018-09-17T16:38:16.457Z,26.40
2018-09-17T16:40:44.187Z,26.30
2018-09-17T16:43:11.933Z,26.20
2018-09-17T16:45:39.712Z,26.10
2018-09-17T16:48:07.434Z,25.80
2018-09-17T16:50:35.131Z,25.50
2018-09-17T16:53:02.986Z,25.30
2018-09-17T16:55:30.655Z,25.10
2018-09-17T16:57:58.517Z,25.00
2018-09-17T17:00:26.234Z,24.80
2018-09-17T17:02:53.988Z,24.60
2018-09-17T17:05:22.420Z,24.60
2018-09-17T17:07:51.150Z,24.50
2018-09-17T17:10:19.386Z,24.40
2018-09-17T17:12:47.053Z,24.20
2018-09-17T17:15:14.749Z,24.10
2018-09-17T17:17:42.417Z,24.00
2018-09-17T17:20:10.230Z,23.80
2018-09-17T17:22:37.976Z,23.70
2018-09-17T17:25:05.836Z,23.60
2018-09-17T17:27:33.607Z,23.40
2018-09-17T17:30:01.646Z,23.30
2018-09-17T17:32:29.719Z,23.10
2018-09-17T17:34:58.610Z,22.90
2018-09-17T17:37:26.611Z,22.80
2018-09-17T17:39:54.397Z,22.60
2018-09-17T17:42:22.089Z,22.50
2018-09-17T17:44:49.807Z,22.30
2018-09-17T17:47:17.494Z,22.30
2018-09-17T17:49:45.181Z,22.20
2018-09-17T17:52:12.938Z,22.00
2018-09-17T17:54:40.737Z,22.00
2018-09-17T17:57:08.323Z,21.90
2018-09-17T17:59:35.989Z,21.80
2018-09-17T18:02:03.662Z,21.70
2018-09-17T18:04:31.403Z,21.60
2018-09-17T18:06:59.064Z,21.60
2018-09-17T18:09:26.836Z,21.50
2018-09-17T18:11:54.469Z,21.50
2018-09-17T18:14:22.086Z,21.40
2018-09-17T18:16:49.747Z,21.40
2018-09-17T18:19:17.452Z,21.40
2018-09-17T18:21:45.281Z,21.30
2018-09-17T18:24:12.873Z,21.20
2018-09-17T18:26:40.810Z,21.20
2018-09-17T18:29:08.556Z,21.20
2018-09-17T18:31:36.379Z,21.10
2018-09-17T18:34:04.329Z,21.10
2018-09-17T18:36:31.992Z,21.00
2018-09-17T18:38:59.754Z,21.00
2018-09-17T18:41:27.383Z,20.90
2018-09-17T18:43:55.072Z,20.90
2018-09-17T18:46:22.783Z,20.90
2018-09-17T18:48:50.559Z,20.80
2018-09-17T18:51:18.998Z,20.70
2018-09-17T18:53:47.103Z,20.60
2018-09-17T18:56:16.320Z,20.60
2018-09-17T18:58:46.211Z,20.40
2018-09-17T19:01:16.776Z,20.40
2018-09-17T19:03:44.469Z,20.30
2018-09-17T19:06:12.384Z,20.10
2018-09-17T19:08:40.522Z,20.00
2018-09-17T19:11:08.320Z,19.90
2018-09-17T19:13:36.195Z,19.80
2018-09-17T19:16:03.928Z,19.70
2018-09-17T19:18:31.673Z,19.60
2018-09-17T19:21:06.946Z,19.50
2018-09-17T19:23:40.258Z,19.40
2018-09-17T19:26:07.957Z,19.40
2018-09-17T19:28:41.440Z,19.20
2018-09-17T19:31:09.242Z,19.10
2018-09-17T19:33:36.852Z,19.10
2018-09-17T19:36:04.970Z,19.00
2018-09-17T19:38:39.067Z,19.00
2018-09-17T19:41:07.095Z,18.90
2018-09-17T19:43:34.849Z,18.80
2018-09-17T19:46:08.342Z,18.70
2018-09-17T19:48:36.049Z,18.60
2018-09-17T19:51:09.901Z,18.50
2018-09-17T19:53:37.656Z,18.50
2018-09-17T19:56:05.633Z,18.40
2018-09-17T19:59:38.622Z,18.40
2018-09-17T20:02:06.865Z,18.30
2018-09-17T20:04:40.673Z,18.20
2018-09-17T20:07:08.651Z,18.10
2018-09-17T20:09:37.027Z,18.00
2018-09-17T20:12:05.436Z,18.10
2018-09-17T20:14:33.309Z,18.10
2018-09-17T20:17:01.344Z,18.00
2018-09-17T20:19:29.112Z,17.90
2018-09-17T20:21:56.880Z,17.90
2018-09-17T20:24:24.675Z,17.90
2018-09-17T20:26:52.344Z,17.80
2018-09-17T20:29:20.105Z,17.80
2018-09-17T20:31:47.818Z,17.80
2018-09-17T20:34:15.448Z,17.80
2018-09-17T20:36:43.284Z,17.80
2018-09-17T20:39:11.026Z,17.70
2018-09-17T20:41:39.913Z,17.60
2018-09-17T20:44:07.627Z,17.60
2018-09-17T20:46:35.435Z,17.60
2018-09-17T20:49:04.103Z,17.50
2018-09-17T20:51:31.723Z,17.40
2018-09-17T20:53:59.780Z,17.40
2018-09-17T20:56:27.544Z,17.30
2018-09-17T20:58:55.214Z,17.20
2018-09-17T21:01:22.932Z,17.20
2018-09-17T21:03:50.532Z,17.20
2018-09-17T21:06:18.276Z,17.10
2018-09-17T21:08:45.948Z,17.10
2018-09-17T21:11:13.677Z,17.00
2018-09-17T21:13:41.476Z,17.00
2018-09-17T21:16:09.276Z,17.00
2018-09-17T21:18:36.890Z,17.00
2018-09-17T21:21:04.528Z,17.00
2018-09-17T21:23:32.317Z,16.90
2018-09-17T21:26:00.017Z,16.90
2018-09-17T21:28:27.758Z,16.90
2018-09-17T21:30:55.408Z,16.90
2018-09-17T21:33:23.161Z,16.80
2018-09-17T21:35:50.889Z,16.60
2018-09-17T21:38:18.541Z,16.50
2018-09-17T21:40:46.288Z,16.40
2018-09-17T21:43:14.970Z,16.30
2018-09-17T21:45:42.691Z,16.30
2018-09-17T21:48:10.368Z,16.20
2018-09-17T21:50:37.972Z,16.10
2018-09-17T21:53:05.822Z,16.10
2018-09-17T21:55:33.532Z,16.10
2018-09-17T21:58:01.165Z,16.10
2018-09-17T22:00:33.432Z,16.10
2018-09-17T22:03:01.025Z,16.10
2018-09-17T22:05:28.647Z,16.10
2018-09-17T22:07:56.885Z,16.00
2018-09-17T22:10:24.556Z,15.90
2018-09-17T22:12:52.263Z,15.90
2018-09-17T22:15:20.888Z,15.90
2018-09-17T22:17:48.643Z,15.80
2018-09-17T22:20:16.326Z,15.80
2018-09-17T22:22:44.014Z,15.70
2018-09-17T22:25:11.621Z,15.70
2018-09-17T22:27:39.345Z,15.60
2018-09-17T22:30:07.082Z,15.60
2018-09-17T22:32:34.743Z,15.60
2018-09-17T22:35:02.582Z,15.60
2018-09-17T22:37:30.277Z,15.50
2018-09-17T22:39:57.979Z,15.40
2018-09-17T22:42:26.023Z,15.40
2018-09-17T22:44:53.640Z,15.40
2018-09-17T22:47:21.366Z,15.40
2018-09-17T22:49:49.068Z,15.30
2018-09-17T22:52:16.735Z,15.40
2018-09-17T22:54:44.419Z,15.40
2018-09-17T22:57:12.178Z,15.40
2018-09-17T22:59:39.957Z,15.30
2018-09-17T23:02:07.587Z,15.30
2018-09-17T23:04:35.271Z,15.20
2018-09-17T23:07:02.941Z,15.20
2018-09-17T23:09:30.601Z,15.20
2018-09-17T23:11:58.305Z,15.10
2018-09-17T23:14:26.201Z,15.10
2018-09-17T23:16:53.901Z,15.00
2018-09-17T23:19:22.038Z,14.90
2018-09-17T23:21:49.750Z,14.90
2018-09-17T23:24:17.466Z,14.80
2018-09-17T23:26:45.153Z,14.70
2018-09-17T23:29:12.766Z,14.70
2018-09-17T23:31:40.404Z,14.70
2018-09-17T23:34:08.119Z,14.70
2018-09-17T23:36:35.793Z,14.70
2018-09-17T23:39:06.523Z,14.70
2018-09-17T23:41:34.139Z,14.70
2018-09-17T23:44:01.833Z,14.70
2018-09-17T23:46:29.457Z,14.80
2018-09-17T23:48:57.095Z,14.90
2018-09-17T23:51:24.668Z,15.00
2018-09-17T23:53:52.412Z,15.10
2018-09-17T23:56:20.052Z,15.10
2018-09-17T23:58:47.700Z,15.10
